Air Navigation Services of Czech Republic
Airport: LKPD Updated:  25.03.2019 22:00:07  UTC
 METAR LKPD 25.03. 22:00 ...
METAR LKPD 252200Z 29008KT CAVOK 04/00 Q1019 RMK BLU=
 TAF LKPD 25.03. 17:00 ...
TAF LKPD 251700Z 2518/2618 28008KT 9999 SCT040      TEMPO 2518/2522 28015G25KT 7000 SHRA BKN022TCU      PROB30 TEMPO 2518/2521 4000 SHSNRA SCT014CB SCT025      BECMG 2607/2608 28015G25KT BKN030      TEMPO 2612/2618 28020G32KT=